Time;durP1;ratioP1;P1;durP2;ratioP2;P2;SDS_P1;SDS_P2;PMS_P1;PMS_P2;Temp;Humidity;BMP_temperature;BMP_pressure;BME280_temperature;BME280_humidity;BME280_pressure;Samples;Min_cycle;Max_cycle;Signal;HPM_P1;HPM_P2
2023/03/10 00:02:22;;;;;;;29.35;7.63;;;14.40;99.90;;;;;;5052754;28;20112;-65
2023/03/10 00:04:51;;;;;;;31.75;7.47;;;14.40;99.90;;;;;;5052449;28;20029;-64
2023/03/10 00:07:18;;;;;;;36.45;7.32;;;14.40;99.90;;;;;;5052740;28;20032;-64
2023/03/10 00:09:44;;;;;;;31.05;7.50;;;14.70;99.90;;;;;;5053148;28;20398;-65
2023/03/10 00:12:10;;;;;;;29.73;7.03;;;14.50;99.90;;;;;;5052470;28;20029;-63
2023/03/10 00:14:36;;;;;;;29.02;6.88;;;14.50;99.90;;;;;;5052401;28;20045;-65
2023/03/10 00:17:01;;;;;;;28.95;6.60;;;14.60;99.90;;;;;;5052926;28;20120;-64
2023/03/10 00:19:27;;;;;;;31.33;7.68;;;14.70;99.90;;;;;;5052044;28;20048;-65
2023/03/10 00:21:53;;;;;;;30.75;7.80;;;14.60;99.90;;;;;;5052551;28;20037;-64
2023/03/10 00:24:18;;;;;;;33.78;7.38;;;14.70;99.90;;;;;;5052208;28;20521;-64
2023/03/10 00:26:44;;;;;;;32.85;7.50;;;14.60;99.90;;;;;;5052431;28;20029;-64
2023/03/10 00:29:11;;;;;;;24.98;7.75;;;14.80;99.90;;;;;;5052685;28;20024;-64
2023/03/10 00:31:37;;;;;;;29.40;7.55;;;14.60;99.90;;;;;;5052502;28;20037;-64
2023/03/10 00:34:03;;;;;;;31.23;7.72;;;14.60;99.90;;;;;;5051760;28;20053;-64
2023/03/10 00:36:30;;;;;;;32.47;7.55;;;14.40;99.90;;;;;;5051915;28;20075;-63
2023/03/10 00:38:59;;;;;;;33.13;8.18;;;14.50;99.90;;;;;;5052149;28;20565;-65
2023/03/10 00:41:29;;;;;;;29.42;6.90;;;14.40;99.90;;;;;;5052077;28;20078;-65
2023/03/10 00:43:56;;;;;;;26.88;6.30;;;14.50;99.90;;;;;;5052275;28;20378;-65
2023/03/10 00:46:23;;;;;;;23.33;6.28;;;14.40;99.90;;;;;;5052094;28;20040;-65
2023/03/10 00:48:49;;;;;;;25.00;6.15;;;14.00;99.90;;;;;;5052027;28;20097;-64
2023/03/10 00:51:15;;;;;;;23.20;5.78;;;13.70;99.90;;;;;;5052092;28;20049;-65
2023/03/10 00:53:42;;;;;;;25.13;7.07;;;13.60;99.90;;;;;;5052022;28;20025;-65
2023/03/10 00:56:10;;;;;;;24.05;5.78;;;13.80;99.90;;;;;;5052302;28;20500;-65
2023/03/10 00:58:36;;;;;;;22.75;5.50;;;13.40;99.90;;;;;;5052017;28;20032;-65
2023/03/10 01:01:03;;;;;;;23.42;6.32;;;13.60;99.90;;;;;;5052067;28;20025;-65
2023/03/10 01:03:29;;;;;;;28.15;6.32;;;13.40;99.90;;;;;;5051521;28;20082;-65
2023/03/10 01:05:55;;;;;;;29.23;6.65;;;13.40;99.90;;;;;;5051897;28;20429;-64
2023/03/10 01:08:22;;;;;;;29.35;8.00;;;13.30;99.90;;;;;;5051918;28;20025;-65
2023/03/10 01:10:48;;;;;;;31.77;7.75;;;13.40;99.90;;;;;;5052216;28;20100;-65
2023/03/10 01:13:15;;;;;;;38.78;8.23;;;13.30;99.90;;;;;;5051702;28;20053;-65
2023/03/10 01:15:43;;;;;;;37.55;8.70;;;13.30;99.90;;;;;;5051376;28;20036;-66
2023/03/10 01:18:09;;;;;;;34.92;7.97;;;13.10;99.90;;;;;;5051653;28;20373;-65
2023/03/10 01:20:35;;;;;;;43.35;9.00;;;13.20;99.90;;;;;;5051808;28;20025;-66
2023/03/10 01:23:01;;;;;;;36.65;8.50;;;13.20;99.90;;;;;;5051772;28;20485;-65
2023/03/10 01:25:27;;;;;;;32.72;8.00;;;13.40;99.90;;;;;;5050447;28;20024;-66
2023/03/10 01:27:53;;;;;;;32.63;7.43;;;13.40;99.90;;;;;;5050930;28;20438;-66
2023/03/10 01:30:19;;;;;;;31.65;7.07;;;13.10;99.90;;;;;;5051336;28;20056;-66
2023/03/10 01:32:45;;;;;;;27.42;6.95;;;12.80;99.90;;;;;;5051556;28;20099;-65
2023/03/10 01:35:11;;;;;;;27.65;7.15;;;12.90;99.90;;;;;;5051726;28;20107;-66
2023/03/10 01:37:36;;;;;;;31.10;7.75;;;12.80;99.90;;;;;;5051806;28;20103;-65
2023/03/10 01:40:04;;;;;;;31.13;8.13;;;12.80;99.90;;;;;;5051661;28;20029;-65
2023/03/10 01:42:30;;;;;;;30.08;7.18;;;12.90;99.90;;;;;;5051677;28;20037;-65
2023/03/10 01:45:07;;;;;;;32.63;7.55;;;12.90;99.90;;;;;;5051031;28;20491;-66
2023/03/10 01:47:33;;;;;;;37.55;8.50;;;13.00;99.90;;;;;;5051382;28;20031;-65
2023/03/10 01:49:59;;;;;;;28.00;7.30;;;13.00;99.90;;;;;;5051467;28;20017;-64
2023/03/10 01:52:28;;;;;;;33.97;8.40;;;12.70;99.90;;;;;;5051473;28;20025;-65
2023/03/10 01:55:06;;;;;;;33.08;8.05;;;12.80;99.90;;;;;;5051460;28;20390;-66
2023/03/10 01:57:49;;;;;;;37.65;8.15;;;12.50;99.90;;;;;;5051930;28;20057;-65
2023/03/10 02:00:16;;;;;;;37.83;8.30;;;12.70;99.90;;;;;;5050979;28;20017;-64
2023/03/10 02:02:56;;;;;;;40.97;8.82;;;12.50;99.90;;;;;;5052290;28;20025;-65
2023/03/10 02:05:22;;;;;;;45.28;9.25;;;12.50;99.90;;;;;;5054889;28;20383;-64
2023/03/10 02:07:49;;;;;;;43.78;9.82;;;12.70;99.90;;;;;;5055024;28;20490;-64
2023/03/10 02:10:15;;;;;;;38.33;9.27;;;12.90;99.90;;;;;;5055088;28;20032;-65
2023/03/10 02:12:42;;;;;;;51.35;11.07;;;12.90;99.90;;;;;;5054676;28;20017;-64
2023/03/10 02:15:09;;;;;;;45.80;10.13;;;12.90;99.90;;;;;;5054961;28;20044;-64
2023/03/10 02:17:36;;;;;;;46.05;10.68;;;12.80;99.90;;;;;;5054688;28;20036;-65
2023/03/10 02:20:32;;;;;;;52.38;11.27;;;13.00;99.90;;;;;;5054842;28;20048;-66
2023/03/10 02:22:58;;;;;;;56.72;11.88;;;12.90;99.90;;;;;;5054804;28;20029;-65
2023/03/10 02:25:37;;;;;;;51.42;11.93;;;13.00;99.90;;;;;;5054609;28;20490;-64
2023/03/10 02:28:03;;;;;;;50.05;11.90;;;13.00;99.90;;;;;;5054633;28;20021;-65
2023/03/10 02:30:39;;;;;;;50.40;11.35;;;13.10;99.90;;;;;;5054290;28;20108;-66
2023/03/10 02:33:29;;;;;;;48.00;11.25;;;13.00;99.90;;;;;;5055011;28;20032;-65
2023/03/10 02:36:19;;;;;;;54.72;11.60;;;12.90;99.90;;;;;;5054295;28;20086;-65
2023/03/10 02:38:45;;;;;;;54.78;11.80;;;12.80;99.90;;;;;;5053187;28;20363;-64
2023/03/10 02:41:32;;;;;;;51.63;11.48;;;12.70;99.90;;;;;;5054453;28;20033;-65
2023/03/10 02:44:00;;;;;;;49.50;11.30;;;12.70;99.90;;;;;;5053857;28;20028;-65
2023/03/10 02:46:27;;;;;;;53.83;12.10;;;12.60;99.90;;;;;;5054561;28;20029;-65
2023/03/10 02:48:52;;;;;;;55.60;12.85;;;12.60;99.90;;;;;;5054267;28;20017;-65
2023/03/10 02:51:28;;;;;;;57.95;12.15;;;12.30;99.90;;;;;;5054214;28;20379;-64
2023/03/10 02:53:54;;;;;;;48.22;11.27;;;12.50;99.90;;;;;;5054273;28;20013;-65
2023/03/10 02:56:20;;;;;;;57.70;11.60;;;12.30;99.90;;;;;;5054062;28;20059;-65
2023/03/10 02:58:45;;;;;;;52.88;11.70;;;12.50;99.90;;;;;;5053729;28;20052;-64
2023/03/10 03:01:11;;;;;;;55.03;11.73;;;12.40;99.90;;;;;;5054266;28;20051;-64
2023/03/10 03:03:37;;;;;;;58.08;11.95;;;12.50;99.90;;;;;;5054301;28;20032;-65
2023/03/10 03:06:03;;;;;;;59.35;13.27;;;12.50;99.90;;;;;;5054021;28;20478;-64
2023/03/10 03:08:28;;;;;;;51.30;11.50;;;12.20;99.90;;;;;;5053933;28;20523;-65
2023/03/10 03:10:55;;;;;;;54.55;13.23;;;12.20;99.90;;;;;;5053828;28;20082;-65
2023/03/10 03:13:20;;;;;;;56.17;13.55;;;12.30;99.90;;;;;;5053450;28;20514;-65
2023/03/10 03:15:47;;;;;;;56.08;12.63;;;12.20;99.90;;;;;;5052730;28;20033;-65
2023/03/10 03:18:13;;;;;;;52.92;13.05;;;12.20;99.90;;;;;;5053687;28;20415;-65
2023/03/10 03:20:39;;;;;;;60.85;13.25;;;12.20;99.90;;;;;;5053678;28;20063;-64
2023/03/10 03:23:05;;;;;;;60.92;12.93;;;12.10;99.90;;;;;;5054017;28;20389;-65
2023/03/10 03:25:35;;;;;;;60.80;13.07;;;12.20;99.90;;;;;;5053540;28;20075;-64
2023/03/10 03:28:01;;;;;;;66.60;14.40;;;12.20;99.90;;;;;;5053227;28;20493;-64
2023/03/10 03:30:27;;;;;;;64.45;14.35;;;12.30;99.90;;;;;;5053430;28;20048;-65
2023/03/10 03:32:54;;;;;;;61.38;13.85;;;12.30;99.90;;;;;;5053514;28;20477;-65
2023/03/10 03:35:23;;;;;;;64.63;13.68;;;12.50;99.90;;;;;;5053272;28;20417;-65
2023/03/10 03:37:50;;;;;;;57.33;12.75;;;12.20;99.90;;;;;;5053373;28;20037;-65
2023/03/10 03:40:16;;;;;;;54.65;11.75;;;12.10;99.90;;;;;;5052393;28;20052;-65
2023/03/10 03:42:47;;;;;;;57.50;12.23;;;12.10;99.90;;;;;;5052812;28;20074;-65
2023/03/10 03:45:15;;;;;;;51.08;11.45;;;12.20;99.90;;;;;;5052997;28;20477;-64
2023/03/10 03:47:42;;;;;;;48.38;10.88;;;12.20;99.90;;;;;;5053024;28;20025;-64
2023/03/10 03:50:10;;;;;;;47.25;11.00;;;12.20;99.90;;;;;;5052996;28;20047;-65
2023/03/10 03:52:36;;;;;;;53.75;11.70;;;12.30;99.90;;;;;;5052921;28;20057;-65
2023/03/10 03:55:03;;;;;;;44.33;11.10;;;12.20;99.90;;;;;;5052905;28;20052;-66
2023/03/10 03:57:28;;;;;;;54.35;11.80;;;12.20;99.90;;;;;;5052849;28;20032;-66
2023/03/10 03:59:54;;;;;;;49.15;10.85;;;12.20;99.90;;;;;;5052875;28;20521;-66
2023/03/10 04:02:20;;;;;;;43.17;10.10;;;12.30;99.90;;;;;;5052778;28;20051;-66
2023/03/10 04:04:46;;;;;;;47.78;11.05;;;12.20;99.90;;;;;;5052792;28;20029;-65
2023/03/10 04:07:12;;;;;;;45.92;10.45;;;12.20;99.90;;;;;;5052806;28;20028;-66
2023/03/10 04:09:39;;;;;;;45.50;10.57;;;12.20;99.90;;;;;;5053000;28;20513;-64
2023/03/10 04:12:05;;;;;;;43.88;10.73;;;12.20;99.90;;;;;;5052427;28;20044;-65
2023/03/10 04:14:32;;;;;;;41.10;9.95;;;12.10;99.90;;;;;;5052505;28;20525;-66
2023/03/10 04:16:57;;;;;;;43.50;10.05;;;12.20;99.90;;;;;;5052877;28;20486;-65
2023/03/10 04:19:23;;;;;;;50.45;10.02;;;12.30;99.90;;;;;;5052485;28;20021;-65
2023/03/10 04:21:49;;;;;;;48.33;11.25;;;12.20;99.90;;;;;;5052607;28;20103;-65
2023/03/10 04:24:15;;;;;;;45.45;10.05;;;12.30;99.90;;;;;;5051929;28;20517;-64
2023/03/10 04:26:40;;;;;;;43.17;9.88;;;12.30;99.90;;;;;;5052100;28;20036;-65
2023/03/10 04:29:06;;;;;;;43.00;10.00;;;12.20;99.90;;;;;;5052856;28;20375;-64
2023/03/10 04:31:32;;;;;;;49.28;11.77;;;12.30;99.90;;;;;;5052331;28;20029;-65
2023/03/10 04:33:57;;;;;;;44.33;10.95;;;12.30;99.90;;;;;;5052361;28;20013;-65
2023/03/10 04:36:23;;;;;;;44.60;10.30;;;12.20;99.90;;;;;;5052087;28;20486;-65
2023/03/10 04:38:49;;;;;;;51.55;11.35;;;12.20;99.90;;;;;;5051922;28;20029;-64
2023/03/10 04:41:16;;;;;;;40.92;10.57;;;12.10;99.90;;;;;;5052159;28;20393;-64
2023/03/10 04:43:42;;;;;;;48.28;10.77;;;12.10;99.90;;;;;;5052467;28;20618;-64
2023/03/10 04:46:08;;;;;;;47.28;10.55;;;12.10;99.90;;;;;;5052005;28;20032;-65
2023/03/10 04:48:34;;;;;;;53.95;12.05;;;12.00;99.90;;;;;;5052017;28;20045;-64
2023/03/10 04:51:06;;;;;;;47.47;11.45;;;11.90;99.90;;;;;;5052090;28;20513;-64
2023/03/10 04:53:34;;;;;;;50.65;11.00;;;11.70;99.90;;;;;;5051716;28;20025;-65
2023/03/10 04:56:01;;;;;;;55.40;12.70;;;11.80;99.90;;;;;;5051788;28;20064;-64
2023/03/10 04:58:26;;;;;;;53.50;11.90;;;12.00;99.90;;;;;;5052352;28;20036;-65
2023/03/10 05:00:52;;;;;;;46.33;11.35;;;12.10;99.90;;;;;;5051842;28;20029;-65
2023/03/10 05:03:18;;;;;;;54.22;11.13;;;12.10;99.90;;;;;;5052015;28;20040;-66
2023/03/10 05:05:44;;;;;;;56.38;11.95;;;12.00;99.90;;;;;;5050655;28;20100;-66
2023/03/10 05:08:10;;;;;;;57.45;12.43;;;12.00;99.90;;;;;;5051724;28;20500;-66
2023/03/10 05:10:39;;;;;;;53.17;12.27;;;12.00;99.90;;;;;;5051941;28;20389;-65
2023/03/10 05:13:05;;;;;;;51.17;11.95;;;11.90;99.90;;;;;;5052109;28;20029;-65
2023/03/10 05:15:33;;;;;;;58.30;13.40;;;11.80;99.90;;;;;;5051755;28;20390;-65
2023/03/10 05:17:59;;;;;;;58.60;12.45;;;11.50;99.90;;;;;;5051800;28;20037;-65
2023/03/10 05:20:25;;;;;;;55.22;12.68;;;11.60;99.90;;;;;;5051842;28;20432;-65
2023/03/10 05:22:50;;;;;;;57.15;13.13;;;11.60;99.90;;;;;;5050124;28;20036;-65
2023/03/10 05:25:16;;;;;;;61.90;13.77;;;11.50;99.90;;;;;;5051717;28;20033;-65
2023/03/10 05:27:42;;;;;;;58.38;14.25;;;11.60;99.90;;;;;;5052171;28;20110;-65
2023/03/10 05:30:10;;;;;;;57.30;12.98;;;11.70;99.90;;;;;;5051720;28;20028;-66
2023/03/10 05:32:36;;;;;;;61.67;14.40;;;11.70;99.90;;;;;;5051850;28;20033;-65
2023/03/10 05:35:03;;;;;;;60.05;13.25;;;11.50;99.90;;;;;;5052057;28;20104;-65
2023/03/10 05:37:29;;;;;;;62.35;14.55;;;11.40;99.90;;;;;;5051921;28;20069;-65
2023/03/10 05:39:55;;;;;;;64.78;13.73;;;11.40;99.90;;;;;;5055554;28;20091;-65
2023/03/10 05:42:21;;;;;;;58.22;12.98;;;11.40;99.90;;;;;;5055517;28;20028;-65
2023/03/10 05:44:47;;;;;;;59.45;13.45;;;11.40;99.90;;;;;;5055159;28;20090;-64
2023/03/10 05:47:13;;;;;;;55.83;13.00;;;11.30;99.90;;;;;;5055412;28;20031;-66
2023/03/10 05:49:39;;;;;;;57.63;12.45;;;11.30;99.90;;;;;;5055185;28;20029;-65
2023/03/10 05:52:06;;;;;;;61.35;13.32;;;11.40;99.90;;;;;;5055464;28;20040;-65
2023/03/10 05:54:31;;;;;;;59.53;13.32;;;11.40;99.90;;;;;;5055228;28;20068;-65
2023/03/10 05:56:57;;;;;;;57.15;12.70;;;11.50;99.90;;;;;;5055097;28;20029;-65
2023/03/10 05:59:23;;;;;;;57.83;12.27;;;11.40;99.90;;;;;;5055170;28;20078;-65
2023/03/10 06:01:48;;;;;;;50.65;11.43;;;11.60;99.90;;;;;;5055412;28;20389;-65
2023/03/10 06:04:14;;;;;;;60.03;12.70;;;11.40;99.90;;;;;;5055033;28;20021;-65
2023/03/10 06:06:40;;;;;;;48.97;11.75;;;11.50;99.90;;;;;;5054765;28;20394;-65
2023/03/10 06:09:06;;;;;;;53.83;12.23;;;11.60;99.90;;;;;;5055141;28;20474;-65
2023/03/10 06:11:32;;;;;;;49.53;11.70;;;11.50;99.90;;;;;;5054926;28;20040;-65
2023/03/10 06:13:58;;;;;;;50.33;11.52;;;11.50;99.90;;;;;;5055049;28;20048;-65
2023/03/10 06:16:24;;;;;;;57.85;12.05;;;11.40;99.90;;;;;;5054924;28;20491;-65
2023/03/10 06:18:55;;;;;;;54.05;12.70;;;11.50;99.90;;;;;;5054798;28;20439;-66
2023/03/10 06:21:22;;;;;;;56.65;12.77;;;11.50;99.90;;;;;;5054518;28;20469;-65
2023/03/10 06:23:48;;;;;;;58.30;12.45;;;11.40;99.90;;;;;;5054599;28;20033;-65
2023/03/10 06:26:15;;;;;;;50.72;11.25;;;11.40;99.90;;;;;;5054929;28;20024;-65
2023/03/10 06:28:43;;;;;;;60.40;13.63;;;11.60;99.90;;;;;;5054709;28;20035;-65
2023/03/10 06:31:15;;;;;;;59.42;13.82;;;11.60;99.90;;;;;;5054945;28;20029;-65
2023/03/10 06:33:41;;;;;;;51.17;12.52;;;11.40;99.90;;;;;;5054474;28;20529;-65
2023/03/10 06:36:10;;;;;;;53.00;11.95;;;11.40;99.90;;;;;;5054236;28;20112;-65
2023/03/10 06:38:36;;;;;;;49.90;11.25;;;11.60;99.90;;;;;;5054489;28;20387;-65
2023/03/10 06:41:02;;;;;;;52.00;11.90;;;11.50;99.90;;;;;;5054385;28;20136;-66
2023/03/10 06:43:27;;;;;;;50.15;11.27;;;11.60;99.90;;;;;;5054711;28;20108;-65
2023/03/10 06:45:53;;;;;;;51.30;11.63;;;11.50;99.90;;;;;;5054361;28;20021;-65
2023/03/10 06:48:19;;;;;;;56.78;12.63;;;11.40;99.90;;;;;;5053853;28;20025;-64
2023/03/10 06:50:49;;;;;;;54.60;11.90;;;11.50;99.90;;;;;;5053873;28;20039;-65
2023/03/10 06:53:17;;;;;;;54.22;12.05;;;11.60;99.90;;;;;;5054596;28;20083;-64
2023/03/10 06:55:42;;;;;;;55.10;13.32;;;11.50;99.90;;;;;;5054248;28;20444;-64
2023/03/10 06:58:08;;;;;;;53.35;12.30;;;11.60;99.90;;;;;;5053653;28;20040;-65
2023/03/10 07:00:34;;;;;;;52.40;12.10;;;11.50;99.90;;;;;;5053375;28;20122;-65
2023/03/10 07:02:59;;;;;;;43.80;11.38;;;11.60;99.90;;;;;;5053826;28;20036;-65
2023/03/10 07:05:26;;;;;;;53.25;11.32;;;11.60;99.90;;;;;;5053554;28;20036;-65
2023/03/10 07:07:53;;;;;;;56.28;11.77;;;11.70;99.90;;;;;;5054219;28;20024;-64
2023/03/10 07:10:19;;;;;;;51.47;11.80;;;11.80;99.90;;;;;;5053808;28;20033;-64
2023/03/10 07:12:47;;;;;;;52.90;12.57;;;12.10;99.90;;;;;;5053451;28;20449;-65
2023/03/10 07:15:13;;;;;;;50.60;11.25;;;12.20;99.90;;;;;;5053594;28;20112;-64
2023/03/10 07:17:39;;;;;;;49.67;11.32;;;13.10;99.90;;;;;;5053603;28;20148;-65
2023/03/10 07:20:05;;;;;;;52.70;12.10;;;14.10;99.90;;;;;;5053651;28;20090;-65
2023/03/10 07:22:31;;;;;;;46.72;11.88;;;14.80;99.90;;;;;;5053489;28;20079;-64
2023/03/10 07:24:56;;;;;;;49.40;12.40;;;14.40;99.90;;;;;;5053398;28;20040;-65
2023/03/10 07:27:23;;;;;;;50.20;10.90;;;14.20;99.90;;;;;;5053861;28;20025;-65
2023/03/10 07:29:48;;;;;;;50.33;11.10;;;13.70;99.90;;;;;;5053431;28;20032;-65
2023/03/10 07:32:16;;;;;;;45.67;11.65;;;14.00;99.90;;;;;;5053361;28;20025;-64
2023/03/10 07:34:41;;;;;;;49.38;11.15;;;14.60;99.90;;;;;;5052996;28;20108;-64
2023/03/10 07:37:08;;;;;;;44.70;11.48;;;15.30;99.90;;;;;;5052923;28;20497;-64
2023/03/10 07:39:34;;;;;;;45.75;10.88;;;15.80;99.90;;;;;;5053676;28;20426;-64
2023/03/10 07:41:59;;;;;;;41.40;10.38;;;16.00;99.90;;;;;;5053080;28;20020;-65
2023/03/10 07:44:25;;;;;;;51.70;11.90;;;15.20;99.90;;;;;;5052838;28;20029;-65
2023/03/10 07:46:51;;;;;;;47.63;10.85;;;13.90;99.90;;;;;;5052125;28;20025;-65
2023/03/10 07:49:17;;;;;;;49.00;12.15;;;13.60;99.90;;;;;;5052714;28;20024;-65
2023/03/10 07:51:42;;;;;;;49.65;12.68;;;13.70;99.90;;;;;;5052743;28;20067;-64
2023/03/10 07:54:10;;;;;;;47.88;11.68;;;14.30;99.90;;;;;;5052918;28;20414;-66
2023/03/10 07:56:36;;;;;;;55.22;11.43;;;14.30;99.90;;;;;;5052187;28;20036;-64
2023/03/10 07:59:02;;;;;;;49.85;11.60;;;14.40;99.90;;;;;;5052423;28;20139;-64
2023/03/10 08:01:27;;;;;;;41.08;10.60;;;14.10;99.90;;;;;;5052315;28;20029;-65
2023/03/10 08:03:53;;;;;;;45.35;10.52;;;14.10;99.90;;;;;;5052383;28;20029;-64
2023/03/10 08:06:23;;;;;;;44.80;10.10;;;13.70;99.90;;;;;;5052705;28;20036;-65
2023/03/10 08:08:50;;;;;;;47.95;11.10;;;13.80;99.90;;;;;;5052685;28;20478;-66
2023/03/10 08:11:16;;;;;;;41.85;9.70;;;14.10;99.90;;;;;;5052752;28;20054;-64
2023/03/10 08:13:44;;;;;;;41.35;11.15;;;16.80;99.90;;;;;;5052324;28;20141;-65
2023/03/10 08:16:10;;;;;;;38.13;10.30;;;21.10;99.90;;;;;;5052350;28;20082;-65
2023/03/10 08:18:36;;;;;;;38.92;10.38;;;21.30;99.90;;;;;;5051599;28;20025;-65
2023/03/10 08:21:05;;;;;;;44.53;10.45;;;21.30;99.90;;;;;;5052599;28;20474;-65
2023/03/10 08:23:32;;;;;;;40.55;10.43;;;18.60;99.90;;;;;;5052412;28;20033;-65
2023/03/10 08:26:06;;;;;;;39.65;10.43;;;20.00;99.90;;;;;;5052520;28;20048;-65
2023/03/10 08:28:34;;;;;;;43.30;10.63;;;20.20;99.90;;;;;;5052834;28;20025;-65
2023/03/10 08:31:13;;;;;;;43.22;10.75;;;19.20;99.90;;;;;;5052066;28;20028;-65
2023/03/10 08:33:39;;;;;;;48.20;11.10;;;18.50;99.90;;;;;;5052121;28;20406;-66
2023/03/10 08:36:12;;;;;;;36.55;10.02;;;19.20;99.90;;;;;;5052233;28;20049;-64
2023/03/10 08:38:38;;;;;;;35.33;9.50;;;19.30;99.90;;;;;;5052227;28;20074;-65
2023/03/10 08:41:21;;;;;;;37.05;9.75;;;19.90;99.90;;;;;;5052653;28;20294;-66
2023/03/10 08:43:49;;;;;;;40.40;9.20;;;18.90;99.90;;;;;;5052370;28;20029;-67
2023/03/10 08:46:15;;;;;;;38.05;10.00;;;18.60;99.90;;;;;;5051717;28;20025;-65
2023/03/10 08:48:41;;;;;;;35.38;8.98;;;19.60;99.90;;;;;;5051842;28;20103;-65
2023/03/10 08:51:08;;;;;;;36.53;9.35;;;18.30;99.90;;;;;;5052142;28;20580;-65
2023/03/10 08:53:36;;;;;;;34.83;9.18;;;18.10;99.90;;;;;;5052074;28;20470;-65
2023/03/10 08:56:02;;;;;;;40.53;9.90;;;20.10;99.90;;;;;;5052430;28;20020;-66
2023/03/10 08:58:28;;;;;;;31.90;8.73;;;20.60;99.90;;;;;;5051958;28;20167;-65
2023/03/10 09:00:54;;;;;;;31.25;8.43;;;20.40;99.90;;;;;;5051541;28;20052;-65
2023/03/10 09:03:20;;;;;;;33.55;8.32;;;20.60;99.90;;;;;;5052104;28;20492;-66
2023/03/10 09:05:46;;;;;;;28.95;8.57;;;20.30;99.90;;;;;;5051897;28;20158;-65
2023/03/10 09:08:11;;;;;;;33.45;8.27;;;19.50;99.90;;;;;;5051884;28;20025;-65
2023/03/10 09:10:39;;;;;;;29.33;7.88;;;19.20;99.90;;;;;;5052231;28;20051;-66
2023/03/10 09:13:05;;;;;;;33.25;8.35;;;19.90;99.90;;;;;;5053331;28;20079;-66
2023/03/10 09:15:31;;;;;;;29.52;8.20;;;19.40;99.90;;;;;;5055734;28;20029;-66
2023/03/10 09:17:56;;;;;;;26.08;7.03;;;20.70;99.90;;;;;;5055947;28;20490;-66
2023/03/10 09:20:24;;;;;;;26.45;7.80;;;21.10;99.90;;;;;;5054748;28;20021;-65
2023/03/10 09:22:54;;;;;;;27.00;7.68;;;22.70;99.90;;;;;;5055821;28;20029;-65
2023/03/10 09:25:21;;;;;;;31.88;7.88;;;24.50;99.90;;;;;;5055880;28;20024;-65
2023/03/10 09:27:48;;;;;;;31.30;7.72;;;21.80;99.90;;;;;;5056281;28;20037;-66
2023/03/10 09:30:14;;;;;;;37.00;9.02;;;21.20;99.90;;;;;;5055566;28;20025;-65
2023/03/10 09:32:40;;;;;;;30.92;7.38;;;18.50;99.90;;;;;;5055561;28;20516;-66
2023/03/10 09:35:06;;;;;;;31.63;7.72;;;17.30;99.90;;;;;;5055833;28;20025;-65
2023/03/10 09:37:32;;;;;;;32.55;7.82;;;18.00;99.90;;;;;;5055461;28;20064;-66
2023/03/10 09:39:58;;;;;;;31.88;8.38;;;18.60;99.90;;;;;;5055900;28;20025;-66
2023/03/10 09:42:38;;;;;;;33.80;7.85;;;19.10;99.90;;;;;;5055544;28;20060;-65
2023/03/10 09:45:22;;;;;;;28.90;7.38;;;18.20;99.90;;;;;;5054998;28;20028;-66
2023/03/10 09:48:03;;;;;;;36.28;8.48;;;17.00;99.90;;;;;;5055434;28;20025;-65
2023/03/10 09:50:42;;;;;;;35.10;8.20;;;17.30;99.90;;;;;;5055405;28;20017;-66
2023/03/10 09:53:45;;;;;;;32.00;8.30;;;16.90;99.90;;;;;;5055322;28;20025;-65
2023/03/10 09:56:18;;;;;;;32.45;8.57;;;16.70;99.90;;;;;;5055177;28;20096;-66
2023/03/10 09:59:01;;;;;;;31.17;8.13;;;17.50;99.90;;;;;;5054966;28;20378;-64
2023/03/10 10:01:29;;;;;;;35.78;8.27;;;16.90;99.90;;;;;;5054978;28;20393;-66
2023/03/10 10:04:34;;;;;;;33.17;8.10;;;16.70;99.90;;;;;;5055063;28;20036;-65
2023/03/10 10:07:00;;;;;;;;;;;17.80;99.90;;;;;;5033435;28;20044;-65
2023/03/10 10:09:29;;;;;;;39.75;8.85;;;16.80;99.90;;;;;;5033256;28;19916;-66
2023/03/10 10:11:55;;;;;;;32.95;8.00;;;16.40;99.90;;;;;;5032913;28;20033;-65
2023/03/10 10:14:23;;;;;;;35.38;8.52;;;16.20;99.90;;;;;;5032087;28;20045;-64
2023/03/10 10:17:26;;;;;;;33.55;8.43;;;16.70;99.90;;;;;;5032578;28;20665;-65
2023/03/10 10:19:52;;;;;;;33.78;8.27;;;16.70;99.90;;;;;;4993330;28;20065;-65
2023/03/10 10:22:26;;;;;;;34.50;8.70;;;16.60;99.90;;;;;;4993664;28;20038;-65
2023/03/10 10:25:05;;;;;;;36.25;9.00;;;16.30;99.90;;;;;;4992635;28;20511;-66
2023/03/10 10:27:31;;;;;;;37.58;9.00;;;16.10;99.90;;;;;;4992742;28;20096;-64
2023/03/10 10:29:57;;;;;;;35.08;9.60;;;15.90;99.90;;;;;;4993131;28;20551;-64
2023/03/10 10:32:24;;;;;;;41.70;9.32;;;16.40;99.90;;;;;;4993542;28;20238;-65
2023/03/10 10:34:49;;;;;;;46.40;10.57;;;16.40;99.90;;;;;;4992804;28;20038;-64
2023/03/10 10:37:34;;;;;;;37.45;8.70;;;16.20;99.90;;;;;;4992939;28;20039;-64
2023/03/10 10:40:00;;;;;;;35.65;9.48;;;16.20;99.90;;;;;;4995406;28;20030;-65
2023/03/10 10:42:28;;;;;;;37.65;7.90;;;15.80;99.90;;;;;;5012537;28;20117;-65
2023/03/10 10:44:56;;;;;;;39.42;8.88;;;15.60;99.90;;;;;;5012239;28;20034;-65
2023/03/10 10:47:33;;;;;;;41.75;9.35;;;15.70;99.90;;;;;;5012603;28;20038;-64
2023/03/10 10:50:21;;;;;;;34.65;8.40;;;16.20;99.90;;;;;;5012136;28;20038;-64
2023/03/10 10:52:51;;;;;;;37.92;9.50;;;15.90;99.90;;;;;;5012212;28;20037;-65
2023/03/10 10:55:30;;;;;;;40.10;8.80;;;15.80;99.90;;;;;;5019060;28;20037;-65
2023/03/10 10:57:58;;;;;;;33.63;8.30;;;15.90;99.90;;;;;;5053676;28;20040;-64
2023/03/10 11:00:38;;;;;;;39.10;9.07;;;16.10;99.90;;;;;;5054060;28;20082;-64
2023/03/10 11:03:40;;;;;;;38.72;9.55;;;15.70;99.90;;;;;;5053787;28;20040;-65
2023/03/10 11:06:34;;;;;;;36.78;8.65;;;15.80;99.90;;;;;;5053009;28;20040;-65
2023/03/10 11:09:07;;;;;;;34.47;8.15;;;15.90;99.90;;;;;;5053429;28;20032;-64
2023/03/10 11:11:52;;;;;;;36.92;8.40;;;15.80;99.90;;;;;;5053601;28;20041;-64
2023/03/10 11:14:18;;;;;;;32.47;8.23;;;15.90;99.90;;;;;;5053368;28;20051;-66
2023/03/10 11:16:49;;;;;;;32.20;8.15;;;16.20;99.90;;;;;;5053742;28;20459;-65
2023/03/10 11:19:33;;;;;;;37.30;8.55;;;16.00;99.90;;;;;;5054206;28;20033;-65
2023/03/10 11:22:45;;;;;;;36.75;8.27;;;16.30;99.90;;;;;;5053747;28;20079;-65
2023/03/10 11:25:30;;;;;;;36.47;7.60;;;16.40;99.90;;;;;;5031045;28;20041;-65
2023/03/10 11:28:01;;;;;;;34.72;9.15;;;17.10;99.90;;;;;;5031280;28;20044;-65
2023/03/10 11:30:51;;;;;;;35.00;8.73;;;16.60;99.90;;;;;;5031357;28;20363;-65
2023/03/10 11:33:47;;;;;;;30.08;8.23;;;16.40;99.90;;;;;;5014273;28;20168;-66
2023/03/10 11:36:40;;;;;;;33.22;8.20;;;15.90;99.90;;;;;;5030228;28;20029;-66
2023/03/10 11:39:45;;;;;;;32.58;7.70;;;16.50;99.90;;;;;;5031516;28;20048;-65
2023/03/10 11:42:29;;;;;;;40.90;8.63;;;16.90;99.90;;;;;;5012994;28;20470;-64
2023/03/10 11:45:31;;;;;;;31.92;8.30;;;16.50;99.90;;;;;;5014408;28;20548;-64
2023/03/10 11:48:06;;;;;;;37.72;8.77;;;16.70;99.90;;;;;;5030847;28;20040;-65
2023/03/10 11:50:51;;;;;;;36.92;8.70;;;16.40;99.90;;;;;;5030876;28;20030;-64
2023/03/10 11:53:42;;;;;;;41.78;9.90;;;16.80;99.90;;;;;;5030985;28;20030;-64
2023/03/10 11:56:11;;;;;;;34.58;9.70;;;16.10;99.90;;;;;;5030703;28;20031;-65
2023/03/10 11:58:58;;;;;;;46.95;10.38;;;16.60;99.90;;;;;;5030815;28;20052;-63
2023/03/10 12:01:32;;;;;;;42.17;9.55;;;17.00;99.90;;;;;;5032648;28;20061;-64
2023/03/10 12:04:04;;;;;;;42.13;9.88;;;16.70;99.90;;;;;;5032956;28;20109;-64
2023/03/10 12:07:06;;;;;;;38.25;8.95;;;16.80;99.90;;;;;;5031391;28;20045;-65
2023/03/10 12:09:47;;;;;;;35.47;8.70;;;16.80;99.90;;;;;;5010401;28;20037;-65
2023/03/10 12:12:16;;;;;;;33.58;8.43;;;16.10;99.90;;;;;;5010860;28;20125;-65
2023/03/10 12:14:43;;;;;;;36.03;8.05;;;16.20;99.90;;;;;;5010708;28;20046;-65
2023/03/10 12:17:14;;;;;;;38.78;9.52;;;16.00;99.90;;;;;;5011071;28;20117;-65
2023/03/10 12:20:23;;;;;;;34.80;9.13;;;15.80;99.90;;;;;;5010807;28;20057;-64
2023/03/10 12:23:10;;;;;;;42.80;9.27;;;15.60;99.90;;;;;;5010724;28;20419;-64
2023/03/10 12:25:39;;;;;;;40.40;8.90;;;15.20;99.90;;;;;;5010536;28;20399;-66
2023/03/10 12:28:21;;;;;;;39.50;8.55;;;15.40;99.90;;;;;;5010560;28;20129;-64
2023/03/10 12:31:10;;;;;;;41.72;9.30;;;15.30;99.90;;;;;;5010592;28;20104;-65
2023/03/10 12:33:41;;;;;;;34.55;8.50;;;15.60;99.90;;;;;;5010425;28;20033;-65
2023/03/10 12:36:18;;;;;;;40.05;8.50;;;15.20;99.90;;;;;;5010403;28;20041;-64
2023/03/10 12:38:58;;;;;;;35.80;8.93;;;15.80;99.90;;;;;;5010116;28;20045;-64
2023/03/10 12:41:26;;;;;;;38.30;8.93;;;15.70;99.90;;;;;;5010272;28;20040;-65
2023/03/10 12:43:55;;;;;;;40.22;9.20;;;15.60;99.90;;;;;;5010411;28;20149;-65
2023/03/10 12:46:47;;;;;;;41.83;10.90;;;15.70;99.90;;;;;;5023164;28;20041;-64
2023/03/10 12:49:35;;;;;;;45.20;15.68;;;15.50;99.90;;;;;;5045594;28;20032;-64